createdAt,value
2018-04-22T00:00:02.106Z,57.30
2018-04-22T00:02:06.029Z,57.30
2018-04-22T00:04:11.675Z,57.20
2018-04-22T00:06:15.754Z,57.80
2018-04-22T00:08:19.305Z,57.10
2018-04-22T00:10:22.663Z,57.20
2018-04-22T00:12:26.603Z,57.20
2018-04-22T00:14:29.771Z,57.10
2018-04-22T00:16:34.226Z,57.10
2018-04-22T00:18:38.170Z,57.20
2018-04-22T00:20:41.418Z,57.10
2018-04-22T00:22:45.299Z,57.10
2018-04-22T00:24:48.886Z,57.30
2018-04-22T00:26:52.835Z,57.50
2018-04-22T00:28:56.775Z,57.60
2018-04-22T00:31:01.046Z,57.60
2018-04-22T00:33:04.225Z,57.70
2018-04-22T00:35:07.374Z,57.70
2018-04-22T00:37:10.570Z,57.70
2018-04-22T00:39:13.726Z,57.80
2018-04-22T00:41:17.662Z,57.80
2018-04-22T00:43:21.515Z,57.80
2018-04-22T00:45:24.688Z,57.80
2018-04-22T00:47:28.623Z,58.00
2018-04-22T00:49:31.798Z,58.00
2018-04-22T00:51:35.738Z,58.20
2018-04-22T00:53:57.847Z,58.10
2018-04-22T00:56:02.618Z,58.10
2018-04-22T00:58:05.815Z,58.20
2018-04-22T01:00:09.901Z,58.20
2018-04-22T01:02:15.372Z,58.30
2018-04-22T01:04:20.786Z,58.40
2018-04-22T01:06:26.692Z,58.40
2018-04-22T01:08:31.695Z,58.50
2018-04-22T01:10:38.410Z,59.00
2018-04-22T01:12:44.853Z,58.60
2018-04-22T01:14:50.912Z,58.70
2018-04-22T01:16:57.095Z,58.60
2018-04-22T01:19:04.143Z,58.60
2018-04-22T01:21:09.272Z,58.70
2018-04-22T01:23:14.522Z,58.60
2018-04-22T01:25:19.797Z,58.60
2018-04-22T01:27:25.015Z,58.60
2018-04-22T01:29:30.366Z,58.60
2018-04-22T01:31:36.233Z,58.70
2018-04-22T01:33:42.216Z,58.70
2018-04-22T01:35:48.402Z,58.80
2018-04-22T01:37:54.487Z,58.80
2018-04-22T01:39:59.525Z,58.90
2018-04-22T01:42:05.479Z,58.90
2018-04-22T01:44:10.849Z,58.80
2018-04-22T01:46:16.833Z,59.10
2018-04-22T01:48:22.267Z,59.00
2018-04-22T01:50:27.813Z,59.10
2018-04-22T01:52:33.579Z,59.20
2018-04-22T01:54:38.939Z,59.30
2018-04-22T01:56:44.180Z,59.30
2018-04-22T01:58:49.588Z,59.30
2018-04-22T02:00:55.687Z,59.60
2018-04-22T02:02:59.015Z,59.40
2018-04-22T02:05:02.211Z,59.40
2018-04-22T02:07:06.132Z,59.40
2018-04-22T02:09:11.744Z,59.50
2018-04-22T02:11:16.585Z,59.40
2018-04-22T02:13:21.719Z,59.50
2018-04-22T02:15:26.597Z,59.50
2018-04-22T02:17:31.028Z,59.60
2018-04-22T02:19:35.790Z,59.50
2018-04-22T02:21:41.625Z,59.40
2018-04-22T02:23:46.176Z,59.40
2018-04-22T02:25:50.158Z,59.40
2018-04-22T02:27:54.108Z,59.60
2018-04-22T02:29:57.259Z,59.60
2018-04-22T02:32:00.456Z,59.70
2018-04-22T02:34:05.516Z,59.80
2018-04-22T02:36:08.672Z,59.80
2018-04-22T02:38:11.884Z,59.80
2018-04-22T02:40:15.047Z,59.90
2018-04-22T02:42:19.708Z,60.00
2018-04-22T02:44:23.653Z,59.60
2018-04-22T02:46:26.834Z,59.90
2018-04-22T02:48:30.063Z,59.90
2018-04-22T02:50:33.247Z,60.90
2018-04-22T02:52:36.403Z,60.20
2018-04-22T02:54:40.120Z,60.30
2018-04-22T02:56:43.381Z,60.60
2018-04-22T02:58:46.528Z,60.60
2018-04-22T03:00:49.720Z,60.60
2018-04-22T03:02:53.680Z,60.50
2018-04-22T03:04:56.828Z,60.50
2018-04-22T03:07:00.012Z,60.60
2018-04-22T03:09:03.164Z,60.70
2018-04-22T03:11:07.079Z,60.60
2018-04-22T03:13:10.288Z,60.60
2018-04-22T03:15:13.439Z,60.50
2018-04-22T03:17:16.601Z,60.40
2018-04-22T03:19:20.189Z,60.50
2018-04-22T03:21:23.368Z,60.50
2018-04-22T03:23:27.265Z,60.70
2018-04-22T03:25:31.184Z,60.60
2018-04-22T03:27:34.373Z,60.70
2018-04-22T03:29:37.562Z,60.50
2018-04-22T03:31:40.720Z,60.40
2018-04-22T03:33:44.659Z,60.60
2018-04-22T03:35:47.874Z,60.70
2018-04-22T03:37:51.066Z,61.00
2018-04-22T03:39:54.300Z,61.30
2018-04-22T03:41:57.444Z,61.10
2018-04-22T03:44:00.620Z,61.00
2018-04-22T03:46:03.799Z,60.80
2018-04-22T03:48:07.727Z,60.60
2018-04-22T03:50:11.673Z,60.50
2018-04-22T03:52:14.878Z,60.50
2018-04-22T03:54:18.036Z,60.50
2018-04-22T03:56:21.205Z,60.80
2018-04-22T03:58:24.395Z,60.80
2018-04-22T04:00:28.792Z,60.80
2018-04-22T04:02:33.899Z,60.70
2018-04-22T04:04:38.716Z,60.90
2018-04-22T04:06:43.251Z,60.80
2018-04-22T04:08:48.992Z,60.90
2018-04-22T04:10:54.083Z,60.80
2018-04-22T04:12:58.895Z,60.90
2018-04-22T04:15:03.962Z,60.90
2018-04-22T04:17:09.212Z,61.00
2018-04-22T04:19:31.879Z,61.00
2018-04-22T04:21:53.176Z,61.00
2018-04-22T04:27:20.012Z,61.70
2018-04-22T04:29:23.240Z,61.00
2018-04-22T04:31:29.106Z,60.90
2018-04-22T04:33:32.352Z,61.00
2018-04-22T04:35:35.531Z,61.00
2018-04-22T04:37:38.719Z,61.00
2018-04-22T04:39:41.871Z,60.90
2018-04-22T04:41:45.060Z,61.00
2018-04-22T04:43:48.344Z,61.10
2018-04-22T04:45:51.501Z,61.30
2018-04-22T04:47:54.704Z,61.50
2018-04-22T04:49:58.627Z,61.70
2018-04-22T04:52:02.600Z,61.70
2018-04-22T04:54:05.751Z,61.70
2018-04-22T04:56:09.683Z,62.00
2018-04-22T04:58:13.636Z,62.00
2018-04-22T05:00:16.853Z,62.00
2018-04-22T05:02:20.004Z,62.10
2018-04-22T05:04:23.191Z,62.40
2018-04-22T05:06:26.400Z,62.50
2018-04-22T05:08:29.555Z,62.30
2018-04-22T05:10:33.479Z,62.50
2018-04-22T05:12:37.427Z,62.50
2018-04-22T05:14:40.580Z,62.50
2018-04-22T05:16:43.736Z,62.50
2018-04-22T05:18:46.931Z,62.50
2018-04-22T05:20:50.906Z,62.80
2018-04-22T05:22:54.067Z,62.80
2018-04-22T05:24:58.091Z,63.10
2018-04-22T05:27:02.033Z,63.20
2018-04-22T05:29:05.188Z,63.10
2018-04-22T05:31:09.498Z,63.20
2018-04-22T05:33:12.655Z,63.40
2018-04-22T05:35:16.603Z,63.60
2018-04-22T05:37:19.772Z,63.60
2018-04-22T05:39:23.711Z,63.80
2018-04-22T05:41:26.863Z,63.80
2018-04-22T05:43:30.044Z,63.80
2018-04-22T05:45:33.970Z,64.20
2018-04-22T05:47:37.912Z,64.40
2018-04-22T05:49:41.099Z,64.40
2018-04-22T05:51:45.040Z,64.70
2018-04-22T05:53:48.193Z,64.70
2018-04-22T05:55:51.431Z,65.00
2018-04-22T05:57:55.409Z,66.30
2018-04-22T05:59:58.555Z,65.50
2018-04-22T06:02:01.706Z,65.70
2018-04-22T06:04:04.997Z,65.80
2018-04-22T06:06:08.527Z,65.90
2018-04-22T06:08:12.045Z,65.90
2018-04-22T06:10:15.199Z,66.00
2018-04-22T06:12:18.366Z,66.30
2018-04-22T06:14:21.581Z,66.30
2018-04-22T06:16:24.795Z,66.40
2018-04-22T06:18:28.000Z,66.30
2018-04-22T06:20:31.220Z,66.50
2018-04-22T06:22:35.318Z,66.60
2018-04-22T06:24:40.016Z,66.20
2018-04-22T06:26:43.510Z,66.80
2018-04-22T06:28:47.503Z,66.90
2018-04-22T06:30:51.267Z,67.00
2018-04-22T06:32:54.457Z,68.00
2018-04-22T06:34:57.737Z,67.20
2018-04-22T06:37:02.899Z,67.30
2018-04-22T06:39:06.072Z,67.40
2018-04-22T06:41:10.027Z,67.40
2018-04-22T06:43:13.983Z,67.30
2018-04-22T06:45:17.182Z,67.30
2018-04-22T06:47:20.379Z,67.30
2018-04-22T06:49:23.562Z,67.40
2018-04-22T06:51:27.527Z,66.70
2018-04-22T06:53:32.635Z,67.80
2018-04-22T06:55:37.596Z,67.80
2018-04-22T06:57:41.548Z,68.00
2018-04-22T06:59:44.739Z,67.90
2018-04-22T07:01:48.692Z,67.90
2018-04-22T07:03:52.119Z,67.90
2018-04-22T07:05:56.328Z,67.90
2018-04-22T07:07:59.560Z,67.80
2018-04-22T07:10:03.283Z,67.60
2018-04-22T07:12:06.464Z,67.80
2018-04-22T07:14:09.648Z,67.80
2018-04-22T07:16:13.715Z,68.60
2018-04-22T07:18:16.916Z,68.50
2018-04-22T07:20:20.107Z,68.60
2018-04-22T07:22:23.308Z,68.40
2018-04-22T07:24:27.262Z,69.10
2018-04-22T07:26:30.445Z,69.10
2018-04-22T07:28:35.519Z,69.00
2018-04-22T07:30:40.786Z,69.10
2018-04-22T07:32:45.137Z,69.00
2018-04-22T07:34:48.440Z,69.30
2018-04-22T07:36:51.631Z,69.40
2018-04-22T07:38:55.139Z,69.50
2018-04-22T07:40:58.328Z,69.30
2018-04-22T07:43:02.280Z,69.10
2018-04-22T07:45:07.279Z,69.10
2018-04-22T07:47:11.560Z,69.00
2018-04-22T07:49:15.271Z,69.20
2018-04-22T07:51:18.783Z,68.70
2018-04-22T07:53:30.380Z,68.20
2018-04-22T07:55:33.993Z,68.40
2018-04-22T07:57:37.932Z,68.20
2018-04-22T07:59:41.140Z,68.10
2018-04-22T08:01:45.568Z,67.80
2018-04-22T08:03:49.516Z,66.00
2018-04-22T08:05:52.697Z,65.70
2018-04-22T08:07:56.647Z,63.20
2018-04-22T08:09:59.832Z,63.20
2018-04-22T08:12:03.780Z,62.10
2018-04-22T08:14:06.964Z,61.90
2018-04-22T08:16:10.179Z,60.90
2018-04-22T08:18:14.124Z,59.00
2018-04-22T08:20:17.309Z,58.80
2018-04-22T08:22:21.292Z,57.90
2018-04-22T08:24:25.811Z,57.80
2018-04-22T08:26:29.888Z,57.40
2018-04-22T08:28:33.073Z,56.90
2018-04-22T08:30:36.255Z,56.60
2018-04-22T08:32:39.443Z,55.90
2018-04-22T08:34:42.716Z,55.50
2018-04-22T08:36:45.903Z,55.10
2018-04-22T08:38:49.736Z,55.00
2018-04-22T08:40:53.921Z,54.20
2018-04-22T08:42:57.120Z,54.20
2018-04-22T08:45:00.297Z,53.80
2018-04-22T08:47:06.115Z,52.70
2018-04-22T08:49:09.614Z,52.70
2018-04-22T08:51:12.928Z,52.20
2018-04-22T08:53:16.111Z,51.90
2018-04-22T08:55:19.510Z,51.50
2018-04-22T08:57:22.695Z,50.70
2018-04-22T08:59:25.895Z,50.30
2018-04-22T09:01:29.095Z,50.30
2018-04-22T09:03:32.271Z,50.10
2018-04-22T09:05:36.211Z,49.40
2018-04-22T09:07:39.729Z,49.30
2018-04-22T09:09:42.906Z,49.20
2018-04-22T09:11:46.092Z,48.60
2018-04-22T09:13:49.281Z,48.50
2018-04-22T09:15:52.466Z,48.00
2018-04-22T09:17:55.648Z,47.50
2018-04-22T09:19:59.614Z,46.50
2018-04-22T09:22:02.809Z,46.30
2018-04-22T09:24:06.010Z,46.40
2018-04-22T09:26:09.451Z,46.20
2018-04-22T09:28:12.676Z,46.10
2018-04-22T09:30:15.856Z,46.00
2018-04-22T09:32:19.668Z,45.50
2018-04-22T09:34:23.913Z,45.50
2018-04-22T09:36:28.132Z,45.00
2018-04-22T09:38:32.477Z,45.10
2018-04-22T09:40:35.885Z,44.50
2018-04-22T09:42:39.206Z,44.40
2018-04-22T09:44:43.116Z,43.90
2018-04-22T09:46:46.802Z,43.80
2018-04-22T09:48:50.239Z,43.30
2018-04-22T09:50:55.415Z,43.10
2018-04-22T09:52:59.502Z,42.90
2018-04-22T09:55:03.787Z,43.30
2018-04-22T09:57:07.068Z,41.80
2018-04-22T09:59:11.027Z,42.10
2018-04-22T10:01:20.097Z,42.00
2018-04-22T10:03:24.332Z,41.40
2018-04-22T10:05:33.070Z,40.50
2018-04-22T10:07:37.383Z,40.20
2018-04-22T10:09:40.865Z,40.00
2018-04-22T10:11:44.053Z,40.20
2018-04-22T10:13:48.105Z,41.00
2018-04-22T10:15:51.290Z,40.80
2018-04-22T10:17:56.165Z,39.80
2018-04-22T10:19:59.689Z,39.70
2018-04-22T10:22:02.892Z,39.40
2018-04-22T10:24:06.078Z,39.50
2018-04-22T10:26:10.287Z,38.60
2018-04-22T10:28:14.243Z,37.90
2018-04-22T10:30:17.891Z,37.80
2018-04-22T10:32:21.080Z,37.50
2018-04-22T10:34:24.269Z,37.10
2018-04-22T10:36:28.224Z,37.00
2018-04-22T10:38:31.455Z,36.80
2018-04-22T10:40:34.639Z,36.70
2018-04-22T10:42:38.295Z,36.80
2018-04-22T10:44:41.483Z,36.40
2018-04-22T10:46:44.683Z,36.30
2018-04-22T10:48:47.935Z,36.30
2018-04-22T10:50:51.114Z,35.90
2018-04-22T10:52:54.292Z,35.30
2018-04-22T10:54:59.407Z,34.80
2018-04-22T10:57:02.586Z,34.70
2018-04-22T10:59:05.819Z,34.70
2018-04-22T11:01:08.997Z,34.60
2018-04-22T11:03:12.195Z,34.50
2018-04-22T11:05:15.368Z,34.70
2018-04-22T11:07:19.108Z,34.30
2018-04-22T11:09:22.355Z,34.70
2018-04-22T11:11:25.533Z,34.50
2018-04-22T11:13:28.707Z,34.60
2018-04-22T11:15:31.899Z,33.80
2018-04-22T11:17:36.220Z,33.50
2018-04-22T11:19:39.535Z,33.10
2018-04-22T11:21:43.896Z,33.40
2018-04-22T11:23:47.975Z,32.80
2018-04-22T11:25:51.496Z,32.60
2018-04-22T11:27:54.670Z,33.70
2018-04-22T11:29:59.764Z,32.80
2018-04-22T11:32:05.078Z,33.40
2018-04-22T11:34:09.651Z,32.60
2018-04-22T11:36:13.732Z,32.30
2018-04-22T11:38:16.916Z,32.00
2018-04-22T11:40:20.100Z,32.70
2018-04-22T11:42:24.303Z,32.00
2018-04-22T11:44:28.445Z,32.00
2018-04-22T11:46:32.668Z,31.20
2018-04-22T11:48:36.888Z,31.40
2018-04-22T11:50:40.824Z,31.10
2018-04-22T11:52:44.851Z,31.40
2018-04-22T11:54:49.354Z,31.30
2018-04-22T11:56:54.367Z,30.80
2018-04-22T11:58:58.894Z,31.10
2018-04-22T12:01:02.073Z,30.80
2018-04-22T12:03:06.319Z,30.40
2018-04-22T12:05:09.512Z,30.40
2018-04-22T12:07:13.455Z,30.70
2018-04-22T12:09:16.744Z,30.50
2018-04-22T12:11:21.906Z,30.50
2018-04-22T12:13:25.843Z,30.60
2018-04-22T12:15:29.028Z,30.50
2018-04-22T12:17:32.980Z,29.90
2018-04-22T12:19:36.168Z,29.80
2018-04-22T12:21:40.523Z,29.70
2018-04-22T12:23:43.712Z,29.60
2018-04-22T12:25:47.651Z,29.60
2018-04-22T12:27:51.672Z,29.30
2018-04-22T12:29:55.651Z,29.30
2018-04-22T12:31:58.851Z,29.30
2018-04-22T12:34:02.039Z,29.30
2018-04-22T12:36:05.391Z,29.50
2018-04-22T12:38:09.373Z,29.30
2018-04-22T12:40:12.561Z,29.20
2018-04-22T12:42:16.522Z,29.00
2018-04-22T12:44:20.532Z,28.90
2018-04-22T12:46:23.764Z,29.00
2018-04-22T12:48:26.935Z,28.90
2018-04-22T12:50:30.888Z,29.20
2018-04-22T12:52:34.094Z,28.60
2018-04-22T12:54:37.383Z,29.00
2018-04-22T12:56:41.349Z,29.00
2018-04-22T12:58:44.536Z,28.90
2018-04-22T13:00:47.711Z,28.80
2018-04-22T13:02:51.809Z,28.50
2018-04-22T13:04:54.996Z,28.20
2018-04-22T13:06:58.175Z,28.50
2018-04-22T13:09:02.132Z,28.60
2018-04-22T13:11:05.327Z,28.00
2018-04-22T13:13:08.515Z,28.00
2018-04-22T13:15:12.468Z,28.40
2018-04-22T13:17:15.647Z,28.30
2018-04-22T13:19:19.603Z,28.40
2018-04-22T13:21:22.835Z,28.40
2018-04-22T13:23:26.015Z,28.70
2018-04-22T13:25:29.186Z,28.30
2018-04-22T13:27:33.124Z,28.90
2018-04-22T13:29:37.067Z,28.90
2018-04-22T13:31:40.309Z,28.90
2018-04-22T13:33:44.135Z,29.30
2018-04-22T13:35:47.317Z,29.20
2018-04-22T13:37:50.923Z,29.10
2018-04-22T13:39:54.108Z,29.30
2018-04-22T13:41:58.057Z,29.20
2018-04-22T13:44:01.250Z,29.20
2018-04-22T13:46:05.196Z,30.30
2018-04-22T13:48:09.058Z,30.30
2018-04-22T13:50:12.236Z,30.60
2018-04-22T13:52:15.424Z,30.90
2018-04-22T13:54:19.400Z,32.10
2018-04-22T13:56:22.575Z,32.20
2018-04-22T13:58:25.774Z,32.30
2018-04-22T14:00:28.972Z,32.90
2018-04-22T14:02:33.200Z,33.00
2018-04-22T14:04:37.139Z,34.40
2018-04-22T14:06:40.333Z,33.70
2018-04-22T14:08:44.275Z,33.50
2018-04-22T14:10:49.786Z,33.50
2018-04-22T14:12:53.398Z,34.00
2018-04-22T14:14:56.589Z,35.90
2018-04-22T14:16:59.776Z,35.90
2018-04-22T14:19:02.960Z,36.60
2018-04-22T14:21:06.920Z,40.00
2018-04-22T14:23:10.103Z,40.20
2018-04-22T14:25:14.470Z,41.20
2018-04-22T14:27:17.648Z,41.30
2018-04-22T14:29:21.624Z,42.20
2018-04-22T14:31:25.100Z,42.30
2018-04-22T14:33:28.281Z,42.00
2018-04-22T14:35:32.231Z,44.10
2018-04-22T14:37:35.975Z,44.20
2018-04-22T14:39:39.152Z,45.10
2018-04-22T14:41:43.100Z,46.70
2018-04-22T14:44:04.611Z,46.80
2018-04-22T14:46:13.556Z,48.00
2018-04-22T14:48:16.741Z,48.20
2018-04-22T14:50:20.706Z,48.90
2018-04-22T14:52:23.889Z,48.80
2018-04-22T14:54:29.379Z,48.70
2018-04-22T14:56:34.527Z,48.80
2018-04-22T14:58:37.713Z,48.90
2018-04-22T15:00:41.656Z,48.80
2018-04-22T15:02:44.845Z,48.80
2018-04-22T15:04:48.792Z,48.80
2018-04-22T15:06:51.971Z,48.80
2018-04-22T15:08:55.650Z,48.10
2018-04-22T15:10:58.832Z,48.90
2018-04-22T15:13:02.016Z,48.80
2018-04-22T15:15:05.970Z,49.90
2018-04-22T15:17:09.152Z,50.00
2018-04-22T15:19:13.103Z,51.10
2018-04-22T15:21:16.279Z,51.10
2018-04-22T15:23:20.229Z,52.10
2018-04-22T15:25:23.532Z,52.00
2018-04-22T15:27:26.723Z,52.00
2018-04-22T15:29:30.667Z,51.90
2018-04-22T15:31:33.857Z,51.90
2018-04-22T15:33:37.803Z,52.70
2018-04-22T15:35:41.000Z,52.70
2018-04-22T15:37:45.244Z,52.80
2018-04-22T15:39:48.439Z,52.90
2018-04-22T15:41:52.383Z,52.90
2018-04-22T15:43:56.683Z,53.00
2018-04-22T15:46:00.652Z,53.10
2018-04-22T15:48:03.834Z,53.20
2018-04-22T15:50:07.792Z,53.80
2018-04-22T15:52:10.983Z,53.80
2018-04-22T15:54:14.495Z,54.30
2018-04-22T15:56:18.016Z,54.80
2018-04-22T15:58:22.384Z,54.70
2018-04-22T16:00:28.293Z,54.70
2018-04-22T16:02:34.111Z,55.00
2018-04-22T16:04:38.488Z,54.60
2018-04-22T16:06:44.345Z,55.10
2018-04-22T16:08:49.724Z,55.00
2018-04-22T16:10:53.638Z,54.90
2018-04-22T16:12:58.623Z,54.40
2018-04-22T16:15:03.063Z,54.40
2018-04-22T16:17:08.076Z,54.80
2018-04-22T16:19:12.950Z,54.60
2018-04-22T16:21:18.194Z,55.10
2018-04-22T16:23:21.347Z,55.20
2018-04-22T16:25:24.526Z,55.80
2018-04-22T16:27:28.855Z,55.60
2018-04-22T16:29:32.811Z,55.90
2018-04-22T16:31:35.996Z,56.00
2018-04-22T16:33:39.195Z,56.00
2018-04-22T16:35:44.610Z,56.40
2018-04-22T16:37:47.913Z,56.50
2018-04-22T16:39:51.131Z,56.70
2018-04-22T16:41:54.335Z,56.60
2018-04-22T16:43:58.381Z,57.00
2018-04-22T16:46:01.589Z,56.90
2018-04-22T16:48:04.867Z,57.10
2018-04-22T16:50:08.048Z,57.20
2018-04-22T16:52:11.991Z,57.10
2018-04-22T16:54:15.406Z,57.10
2018-04-22T16:56:18.743Z,57.50
2018-04-22T16:58:21.924Z,57.60
2018-04-22T17:00:25.112Z,57.70
2018-04-22T17:02:29.124Z,58.00
2018-04-22T17:04:32.320Z,58.10
2018-04-22T17:06:35.503Z,58.10
2018-04-22T17:08:39.046Z,58.00
2018-04-22T17:10:43.603Z,58.50
2018-04-22T17:12:47.558Z,58.10
2018-04-22T17:14:50.742Z,58.10
2018-04-22T17:16:54.695Z,58.70
2018-04-22T17:18:57.868Z,58.70
2018-04-22T17:21:01.810Z,58.40
2018-04-22T17:23:05.756Z,58.20
2018-04-22T17:25:08.941Z,58.20
2018-04-22T17:27:13.533Z,58.40
2018-04-22T17:29:17.488Z,58.60
2018-04-22T17:31:22.142Z,58.60
2018-04-22T17:33:26.087Z,59.10
2018-04-22T17:35:29.320Z,59.10
2018-04-22T17:37:32.637Z,59.40
2018-04-22T17:39:36.135Z,59.40
2018-04-22T17:41:40.691Z,59.40
2018-04-22T17:43:43.864Z,59.40
2018-04-22T17:45:47.809Z,59.60
2018-04-22T17:47:50.997Z,59.60
2018-04-22T17:49:55.240Z,60.10
2018-04-22T17:51:58.420Z,60.20
2018-04-22T17:54:01.610Z,59.50
2018-04-22T17:56:04.839Z,59.10
2018-04-22T17:58:08.032Z,59.20
2018-04-22T18:00:11.232Z,59.60
2018-04-22T18:02:14.412Z,59.40
2018-04-22T18:04:17.599Z,59.90
2018-04-22T18:06:20.775Z,60.30
2018-04-22T18:08:23.989Z,60.40
2018-04-22T18:10:29.141Z,60.70
2018-04-22T18:12:33.217Z,60.30
2018-04-22T18:14:36.438Z,61.70
2018-04-22T18:16:39.590Z,60.80
2018-04-22T18:18:42.780Z,60.40
2018-04-22T18:20:48.289Z,60.60
2018-04-22T18:22:51.532Z,60.60
2018-04-22T18:24:54.715Z,60.40
2018-04-22T18:26:57.900Z,60.30
2018-04-22T18:29:02.148Z,60.10
2018-04-22T18:31:05.332Z,60.10
2018-04-22T18:33:09.346Z,60.20
2018-04-22T18:35:12.496Z,60.20
2018-04-22T18:37:15.685Z,60.10
2018-04-22T18:39:19.645Z,59.90
2018-04-22T18:41:23.147Z,59.90
2018-04-22T18:43:26.575Z,59.80
2018-04-22T18:45:29.762Z,59.70
2018-04-22T18:47:32.953Z,59.60
2018-04-22T18:49:36.905Z,59.40
2018-04-22T18:51:40.107Z,59.40
2018-04-22T18:53:43.738Z,59.40
2018-04-22T18:55:46.912Z,59.40
2018-04-22T18:57:50.851Z,59.30
2018-04-22T18:59:54.800Z,59.10
2018-04-22T19:01:58.187Z,59.10
2018-04-22T19:04:01.555Z,59.00
2018-04-22T19:06:04.943Z,58.90
2018-04-22T19:08:08.124Z,59.00
2018-04-22T19:10:13.200Z,59.20
2018-04-22T19:12:16.704Z,59.30
2018-04-22T19:14:20.036Z,59.20
2018-04-22T19:16:23.310Z,59.20
2018-04-22T19:18:27.260Z,59.50
2018-04-22T19:20:34.965Z,59.50
2018-04-22T19:22:38.156Z,59.40
2018-04-22T19:24:42.099Z,59.50
2018-04-22T19:26:45.285Z,59.50
2018-04-22T19:28:49.228Z,59.60
2018-04-22T19:30:53.659Z,59.50
2018-04-22T19:32:57.609Z,59.70
2018-04-22T19:35:00.785Z,59.60
2018-04-22T19:37:04.933Z,59.70
2018-04-22T19:39:09.769Z,59.60
2018-04-22T19:41:15.108Z,59.50
2018-04-22T19:43:18.431Z,59.70
2018-04-22T19:45:22.374Z,59.70
2018-04-22T19:47:25.924Z,59.80
2018-04-22T19:49:29.305Z,59.80
2018-04-22T19:51:32.869Z,60.10
2018-04-22T19:53:36.052Z,60.00
2018-04-22T19:55:39.235Z,60.40
2018-04-22T19:57:42.420Z,60.50
2018-04-22T19:59:46.370Z,60.90
2018-04-22T20:01:49.644Z,60.80
2018-04-22T20:03:53.499Z,60.60
2018-04-22T20:05:57.440Z,61.10
2018-04-22T20:08:00.627Z,61.20
2018-04-22T20:10:04.656Z,61.50
2018-04-22T20:12:08.609Z,61.90
2018-04-22T20:14:11.795Z,61.90
2018-04-22T20:16:14.972Z,62.00
2018-04-22T20:18:18.161Z,61.90
2018-04-22T20:20:21.347Z,62.00
2018-04-22T20:22:24.526Z,62.20
2018-04-22T20:24:28.487Z,62.20
2018-04-22T20:26:31.688Z,62.20
2018-04-22T20:28:35.225Z,62.30
2018-04-22T20:30:38.408Z,62.40
2018-04-22T20:32:41.594Z,62.50
2018-04-22T20:34:45.537Z,62.70
2018-04-22T20:36:48.715Z,62.70
2018-04-22T20:38:52.664Z,62.70
2018-04-22T20:40:55.843Z,62.60
2018-04-22T20:42:59.032Z,62.60
2018-04-22T20:45:02.206Z,62.00
2018-04-22T20:47:05.503Z,62.40
2018-04-22T20:49:08.689Z,62.60
2018-04-22T20:51:12.641Z,62.80
2018-04-22T20:53:16.151Z,62.70
2018-04-22T20:55:19.340Z,62.50
2018-04-22T20:57:23.271Z,63.20
2018-04-22T20:59:27.192Z,62.50
2018-04-22T21:01:31.141Z,62.40
2018-04-22T21:03:34.330Z,62.40
2018-04-22T21:05:38.246Z,62.30
2018-04-22T21:07:42.155Z,62.90
2018-04-22T21:09:45.351Z,62.30
2018-04-22T21:11:48.775Z,62.10
2018-04-22T21:13:51.997Z,62.10
2018-04-22T21:15:56.295Z,62.30
2018-04-22T21:17:59.468Z,63.20
2018-04-22T21:20:02.655Z,62.00
2018-04-22T21:22:07.240Z,62.00
2018-04-22T21:24:11.552Z,62.00
2018-04-22T21:26:14.695Z,62.00
2018-04-22T21:28:17.864Z,61.90
2018-04-22T21:30:21.591Z,61.70
2018-04-22T21:32:24.763Z,61.60
2018-04-22T21:34:27.943Z,61.40
2018-04-22T21:36:31.421Z,61.50
2018-04-22T21:38:34.817Z,61.80
2018-04-22T21:40:38.734Z,61.80
2018-04-22T21:42:42.993Z,61.90
2018-04-22T21:44:46.139Z,62.00
2018-04-22T21:46:49.307Z,61.90
2018-04-22T21:48:52.479Z,61.80
2018-04-22T21:50:55.630Z,61.80
2018-04-22T21:52:58.780Z,61.90
2018-04-22T21:55:01.988Z,61.90
2018-04-22T21:57:05.175Z,61.80
2018-04-22T21:59:08.364Z,61.80
2018-04-22T22:01:11.519Z,62.10
2018-04-22T22:03:14.691Z,62.20
2018-04-22T22:05:18.855Z,61.90
2018-04-22T22:07:22.011Z,61.90
2018-04-22T22:09:25.208Z,61.80
2018-04-22T22:11:29.164Z,61.90
2018-04-22T22:13:32.331Z,61.90
2018-04-22T22:15:35.492Z,61.90
2018-04-22T22:17:38.679Z,61.80
2018-04-22T22:19:41.831Z,61.90
2018-04-22T22:21:45.022Z,62.00
2018-04-22T22:23:50.100Z,62.00
2018-04-22T22:25:55.368Z,62.10
2018-04-22T22:27:58.758Z,62.10
2018-04-22T22:30:01.944Z,61.90
2018-04-22T22:32:05.113Z,61.80
2018-04-22T22:34:09.982Z,61.90
2018-04-22T22:36:13.846Z,61.80
2018-04-22T22:38:17.793Z,61.80
2018-04-22T22:40:21.672Z,61.80
2018-04-22T22:42:24.835Z,61.70
2018-04-22T22:44:29.219Z,61.60
2018-04-22T22:46:32.776Z,61.60
2018-04-22T22:48:36.327Z,61.70
2018-04-22T22:50:39.769Z,61.60
2018-04-22T22:52:43.255Z,61.80
2018-04-22T22:54:46.668Z,61.80
2018-04-22T22:56:50.056Z,62.00
2018-04-22T22:58:54.007Z,61.90
2018-04-22T23:00:57.151Z,61.90
2018-04-22T23:03:00.328Z,61.70
2018-04-22T23:05:03.841Z,61.70
2018-04-22T23:07:06.989Z,61.70
2018-04-22T23:09:10.167Z,61.90
2018-04-22T23:11:13.355Z,62.00
2018-04-22T23:13:16.522Z,62.30
2018-04-22T23:15:20.282Z,62.40
2018-04-22T23:17:24.232Z,62.60
2018-04-22T23:19:27.390Z,62.50
2018-04-22T23:21:30.539Z,62.50
2018-04-22T23:23:33.715Z,62.50
2018-04-22T23:25:36.891Z,62.30
2018-04-22T23:27:41.496Z,62.50
2018-04-22T23:29:44.645Z,62.50
2018-04-22T23:31:47.797Z,62.80
2018-04-22T23:33:51.735Z,63.10
2018-04-22T23:35:54.942Z,63.10
2018-04-22T23:37:58.876Z,63.10
2018-04-22T23:40:02.060Z,63.10
2018-04-22T23:42:05.975Z,63.50
2018-04-22T23:44:09.920Z,63.60
2018-04-22T23:46:13.839Z,63.90
2018-04-22T23:48:17.795Z,64.00
2018-04-22T23:50:21.227Z,64.00
2018-04-22T23:52:24.400Z,64.30
2018-04-22T23:54:27.560Z,64.50
2018-04-22T23:56:30.737Z,64.50
2018-04-22T23:58:33.924Z,64.60
